createdAt,value
2022-11-14T00:04:57.205Z,35.17
2022-11-14T00:07:24.401Z,31.40
2022-11-14T00:15:21.443Z,30.40
2022-11-14T00:17:48.607Z,31.45
2022-11-14T00:20:15.606Z,30.42
2022-11-14T00:22:42.400Z,35.08
2022-11-14T00:25:10.772Z,31.75
2022-11-14T00:27:38.595Z,30.77
2022-11-14T00:30:05.787Z,28.77
2022-11-14T00:32:32.569Z,29.70
2022-11-14T00:34:59.364Z,32.72
2022-11-14T00:37:27.177Z,33.22
2022-11-14T00:43:25.629Z,29.80
2022-11-14T00:45:52.502Z,38.33
2022-11-14T00:52:05.374Z,29.65
2022-11-14T01:04:42.367Z,25.73
2022-11-14T01:07:09.180Z,28.40
2022-11-14T01:09:36.035Z,26.98
2022-11-14T01:16:10.379Z,24.23
2022-11-14T01:18:39.008Z,29.40
2022-11-14T01:21:26.442Z,27.38
2022-11-14T01:23:53.333Z,28.10
2022-11-14T01:26:20.340Z,26.83
2022-11-14T01:28:47.124Z,26.70
2022-11-14T01:38:42.878Z,25.42
2022-11-14T01:42:06.008Z,24.33
2022-11-14T01:45:00.463Z,22.55
2022-11-14T01:47:31.876Z,24.30
2022-11-14T01:50:00.935Z,25.73
2022-11-14T01:53:12.527Z,22.98
2022-11-14T01:58:36.881Z,25.65
2022-11-14T02:02:41.375Z,26.48
2022-11-14T02:06:59.575Z,24.02
2022-11-14T02:09:29.914Z,26.73
2022-11-14T02:15:26.199Z,25.52
2022-11-14T02:18:47.865Z,23.95
2022-11-14T02:21:27.156Z,24.63
2022-11-14T02:23:53.918Z,23.77
2022-11-14T02:26:45.777Z,24.35
2022-11-14T02:29:12.614Z,21.20
2022-11-14T02:35:27.740Z,21.27
2022-11-14T02:37:57.416Z,24.55
2022-11-14T02:40:24.240Z,22.08
2022-11-14T02:43:03.357Z,23.48
2022-11-14T02:48:12.535Z,24.98
2022-11-14T02:50:39.397Z,20.65
2022-11-14T02:53:18.583Z,22.67
2022-11-14T02:55:45.454Z,21.42
2022-11-14T02:58:15.173Z,20.38
2022-11-14T03:01:05.850Z,21.52
2022-11-14T03:03:29.041Z,20.73
2022-11-14T03:08:58.709Z,21.38
2022-11-14T03:11:34.890Z,20.17
2022-11-14T03:14:01.641Z,20.35
2022-11-14T03:16:28.591Z,19.65
2022-11-14T03:19:08.947Z,21.67
2022-11-14T03:21:35.698Z,20.05
2022-11-14T03:24:27.410Z,20.67
2022-11-14T03:30:41.802Z,21.45
2022-11-14T03:37:00.389Z,18.98
2022-11-14T03:39:27.608Z,21.40
2022-11-14T03:41:57.363Z,21.65
2022-11-14T03:47:04.875Z,21.33
2022-11-14T03:50:07.499Z,18.20
2022-11-14T03:52:34.575Z,16.75
2022-11-14T03:55:01.432Z,18.08
2022-11-14T03:57:28.421Z,22.15
2022-11-14T04:00:40.894Z,19.13
2022-11-14T04:03:11.455Z,18.25
2022-11-14T04:05:38.372Z,17.67
2022-11-14T04:08:06.408Z,17.60
2022-11-14T04:10:33.349Z,18.33
2022-11-14T04:13:00.228Z,18.13
2022-11-14T04:15:33.421Z,19.73
2022-11-14T04:21:10.774Z,16.25
2022-11-14T04:23:37.538Z,16.35
2022-11-14T04:26:06.879Z,17.42
2022-11-14T04:31:35.930Z,16.17
2022-11-14T04:38:04.344Z,17.00
2022-11-14T04:40:31.123Z,17.60
2022-11-14T04:42:57.862Z,17.17
2022-11-14T04:48:29.272Z,17.13
2022-11-14T04:50:56.295Z,17.58
2022-11-14T04:53:48.469Z,17.75
2022-11-14T04:57:58.183Z,15.70
2022-11-14T05:03:20.431Z,15.70
2022-11-14T05:05:47.318Z,15.95
2022-11-14T05:08:14.294Z,16.30
2022-11-14T05:13:25.423Z,16.85
2022-11-14T05:16:04.628Z,15.95
2022-11-14T05:18:31.738Z,16.83
2022-11-14T05:21:00.127Z,14.40
2022-11-14T05:29:05.750Z,15.10
2022-11-14T05:31:32.601Z,16.23
2022-11-14T05:33:59.361Z,14.50
2022-11-14T05:50:28.224Z,13.65
2022-11-14T05:52:56.709Z,14.25
2022-11-14T05:55:25.126Z,15.30
2022-11-14T05:57:52.066Z,15.48
2022-11-14T06:00:18.962Z,14.95
2022-11-14T06:02:55.376Z,12.82
2022-11-14T06:05:23.206Z,13.65
2022-11-14T06:07:56.758Z,12.45
2022-11-14T06:10:24.334Z,14.60
2022-11-14T06:13:07.493Z,13.13
2022-11-14T06:15:34.275Z,14.32
2022-11-14T06:18:20.598Z,13.52
2022-11-14T06:20:47.573Z,14.48
2022-11-14T06:23:14.329Z,14.40
2022-11-14T06:29:45.086Z,14.77
2022-11-14T06:32:11.960Z,13.48
2022-11-14T06:35:45.665Z,13.25
2022-11-14T06:38:12.468Z,12.55
2022-11-14T06:40:42.109Z,12.77
2022-11-14T06:43:09.033Z,13.02
2022-11-14T06:45:35.714Z,14.68
2022-11-14T06:48:24.817Z,12.48
2022-11-14T06:51:16.949Z,13.70
2022-11-14T06:56:31.840Z,16.50
2022-11-14T06:59:17.009Z,13.95
2022-11-14T07:11:50.328Z,16.45
2022-11-14T07:18:06.855Z,12.10
2022-11-14T07:21:10.066Z,13.02
2022-11-14T07:23:36.819Z,15.05
2022-11-14T07:26:16.256Z,14.55
2022-11-14T07:28:48.148Z,11.80
2022-11-14T07:31:19.951Z,13.73
2022-11-14T07:40:49.990Z,10.98
2022-11-14T07:43:16.734Z,10.50
2022-11-14T07:48:24.234Z,10.95
2022-11-14T07:50:51.136Z,10.15
2022-11-14T07:54:02.810Z,16.08
2022-11-14T07:56:30.171Z,11.50
2022-11-14T07:59:30.714Z,12.68
2022-11-14T08:02:05.117Z,12.65
2022-11-14T08:04:31.948Z,12.05
2022-11-14T08:07:17.035Z,11.18
2022-11-14T08:12:11.660Z,10.80
2022-11-14T08:20:57.451Z,10.57
2022-11-14T08:23:24.462Z,10.88
2022-11-14T08:25:51.363Z,10.73
2022-11-14T08:28:40.097Z,9.60
2022-11-14T08:31:06.901Z,13.00
2022-11-14T08:33:33.793Z,15.05
2022-11-14T08:36:50.602Z,9.93
2022-11-14T08:39:17.403Z,11.40
2022-11-14T08:42:12.394Z,10.02
2022-11-14T08:45:20.020Z,9.73
2022-11-14T08:48:18.167Z,8.68
2022-11-14T08:50:43.376Z,10.48
2022-11-14T08:56:13.831Z,18.20
2022-11-14T08:58:40.672Z,10.60
2022-11-14T09:01:07.935Z,10.40
2022-11-14T09:11:09.969Z,10.95
2022-11-14T09:18:34.505Z,8.75
2022-11-14T09:21:07.441Z,9.32
2022-11-14T09:23:50.499Z,8.30
2022-11-14T09:29:42.140Z,9.05
2022-11-14T09:40:08.967Z,10.32
2022-11-14T09:43:12.166Z,9.27
2022-11-14T09:45:43.944Z,8.57
2022-11-14T09:48:16.080Z,8.43
2022-11-14T09:51:41.134Z,7.82
2022-11-14T09:57:15.489Z,7.97
2022-11-14T10:03:03.433Z,8.95
2022-11-14T10:05:52.410Z,8.45
2022-11-14T10:11:50.621Z,8.60
2022-11-14T10:17:51.753Z,8.77
2022-11-14T10:20:37.475Z,7.35
2022-11-14T10:24:09.466Z,7.85
2022-11-14T10:26:38.719Z,8.38
2022-11-14T10:29:36.794Z,7.75
2022-11-14T10:32:35.787Z,8.75
2022-11-14T10:38:28.117Z,8.05
2022-11-14T10:41:19.345Z,7.57
2022-11-14T10:43:58.689Z,10.18
2022-11-14T10:46:59.821Z,7.88
2022-11-14T10:49:31.079Z,8.02
2022-11-14T10:52:02.052Z,7.70
2022-11-14T10:54:41.245Z,8.73
2022-11-14T10:57:17.019Z,8.48
2022-11-14T10:59:43.752Z,7.90
2022-11-14T11:02:10.762Z,8.48
2022-11-14T11:04:49.496Z,8.98
2022-11-14T11:13:55.727Z,6.10
2022-11-14T11:16:50.695Z,6.40
2022-11-14T11:19:31.055Z,8.40
2022-11-14T11:22:37.619Z,8.07
2022-11-14T11:29:16.388Z,6.13
2022-11-14T11:31:52.272Z,8.02
2022-11-14T11:34:26.551Z,6.28
2022-11-14T11:39:55.765Z,8.55
2022-11-14T12:03:30.115Z,6.33
2022-11-14T12:06:11.036Z,8.18
2022-11-14T12:08:57.641Z,6.97
2022-11-14T12:11:31.186Z,6.75
2022-11-14T12:14:41.150Z,6.90
2022-11-14T12:17:55.924Z,6.15
2022-11-14T12:20:23.603Z,41.97
2022-11-14T12:23:25.555Z,61.47
2022-11-14T12:26:20.339Z,72.18
2022-11-14T12:29:25.517Z,82.38
2022-11-14T12:31:58.757Z,103.65
2022-11-14T12:38:35.506Z,109.90
2022-11-14T12:41:12.601Z,106.00
2022-11-14T12:44:01.022Z,109.18
2022-11-14T12:47:06.107Z,113.05
2022-11-14T12:49:58.203Z,115.03
2022-11-14T12:52:49.280Z,89.20
2022-11-14T12:55:40.677Z,103.93
2022-11-14T13:04:26.663Z,107.13
2022-11-14T13:13:53.476Z,101.78
2022-11-14T13:20:57.152Z,93.20
2022-11-14T13:23:27.028Z,98.90
2022-11-14T13:26:26.179Z,98.53
2022-11-14T13:28:53.926Z,90.70
2022-11-14T13:31:23.649Z,87.03
2022-11-14T13:33:59.078Z,94.20
2022-11-14T13:36:40.337Z,98.25
2022-11-14T13:39:23.698Z,91.82
2022-11-14T13:41:51.922Z,85.72
2022-11-14T13:44:43.336Z,84.40
2022-11-14T13:53:43.960Z,79.78
2022-11-14T13:56:25.009Z,76.30
2022-11-14T14:02:12.384Z,82.78
2022-11-14T14:05:03.556Z,79.75
2022-11-14T14:07:59.079Z,76.95
2022-11-14T14:11:03.690Z,73.75
2022-11-14T14:17:20.013Z,72.03
2022-11-14T14:23:23.923Z,73.25
2022-11-14T14:26:30.727Z,75.70
2022-11-14T14:29:24.983Z,64.25
2022-11-14T14:31:51.970Z,72.15
2022-11-14T14:34:30.827Z,68.97
2022-11-14T14:36:58.398Z,63.97
2022-11-14T14:39:40.577Z,61.00
2022-11-14T14:42:12.118Z,60.20
2022-11-14T14:44:51.597Z,64.90
2022-11-14T14:47:56.219Z,58.92
2022-11-14T14:50:26.870Z,60.10
2022-11-14T14:53:01.210Z,60.70
2022-11-14T14:55:32.404Z,58.55
2022-11-14T15:01:23.775Z,61.60
2022-11-14T15:07:21.966Z,58.97
2022-11-14T15:12:56.156Z,51.63
2022-11-14T15:15:39.687Z,51.58
2022-11-14T15:18:17.003Z,52.78
2022-11-14T15:23:40.109Z,53.83
2022-11-14T15:26:18.231Z,51.17
2022-11-14T15:28:46.002Z,50.15
2022-11-14T15:31:25.807Z,50.13
2022-11-14T15:34:42.541Z,47.92
2022-11-14T15:40:00.662Z,47.50
2022-11-14T15:45:28.360Z,44.97
2022-11-14T15:48:16.551Z,48.30
2022-11-14T15:50:43.526Z,45.35
2022-11-14T15:53:34.464Z,49.90
2022-11-14T15:56:01.468Z,44.63
2022-11-14T15:58:57.240Z,42.55
2022-11-14T16:01:27.711Z,43.58
2022-11-14T16:03:55.307Z,48.80
2022-11-14T16:06:25.435Z,46.78
2022-11-14T16:08:52.899Z,46.08
2022-11-14T16:11:33.808Z,44.20
2022-11-14T16:14:02.347Z,44.65
2022-11-14T16:19:14.037Z,44.33
2022-11-14T16:21:46.635Z,44.90
2022-11-14T16:24:33.862Z,41.35
2022-11-14T16:27:09.804Z,43.80
2022-11-14T16:35:28.307Z,42.85
2022-11-14T16:41:14.561Z,41.28
2022-11-14T16:46:25.380Z,39.85
2022-11-14T16:48:52.470Z,38.30
2022-11-14T16:58:34.020Z,37.80
2022-11-14T17:04:10.141Z,38.22
2022-11-14T17:07:02.860Z,37.13
2022-11-14T17:09:41.626Z,36.38
2022-11-14T17:12:20.199Z,38.55
2022-11-14T17:14:47.104Z,38.10
2022-11-14T17:23:43.860Z,36.17
2022-11-14T17:28:57.477Z,36.53
2022-11-14T18:03:41.597Z,30.90
2022-11-14T18:18:10.069Z,28.42
2022-11-14T18:33:46.896Z,26.58
2022-11-14T18:36:38.138Z,26.42
2022-11-14T18:39:08.387Z,22.48
2022-11-14T18:41:45.871Z,22.20
2022-11-14T18:50:24.814Z,23.38
2022-11-14T18:52:54.919Z,23.33
2022-11-14T19:02:56.962Z,23.45
2022-11-14T19:05:23.875Z,22.35
2022-11-14T19:07:58.872Z,20.55
2022-11-14T19:10:35.521Z,21.83
2022-11-14T19:13:02.842Z,23.23
2022-11-14T19:15:29.743Z,22.77
2022-11-14T19:17:56.584Z,22.80
2022-11-14T19:20:23.421Z,19.95
2022-11-14T19:22:50.280Z,19.27
2022-11-14T19:29:13.964Z,17.90
2022-11-14T19:31:42.158Z,19.27
2022-11-14T19:34:20.859Z,19.13
2022-11-14T19:40:02.295Z,19.25
2022-11-14T19:43:46.247Z,17.00
2022-11-14T19:50:38.883Z,28.08
2022-11-14T19:59:43.795Z,16.40
2022-11-14T20:02:14.492Z,17.80
2022-11-14T20:04:47.216Z,15.90
2022-11-14T20:07:14.712Z,17.23
2022-11-14T20:09:41.557Z,17.83
2022-11-14T20:12:20.273Z,18.90
2022-11-14T20:20:24.632Z,17.38
2022-11-14T20:25:55.640Z,15.32
2022-11-14T20:29:06.858Z,14.65
2022-11-14T20:31:33.752Z,15.57
2022-11-14T20:34:02.982Z,18.10
2022-11-14T20:57:25.951Z,13.43
2022-11-14T20:59:54.756Z,16.70
2022-11-14T21:02:21.469Z,15.75
2022-11-14T21:04:48.416Z,13.77
2022-11-14T21:07:15.560Z,15.65
2022-11-14T21:09:51.377Z,15.38
2022-11-14T21:12:22.482Z,13.00
2022-11-14T21:14:49.244Z,13.18
2022-11-14T21:17:16.275Z,17.20
2022-11-14T21:20:05.561Z,13.88
2022-11-14T21:23:07.052Z,26.63
2022-11-14T21:25:36.807Z,14.40
2022-11-14T21:28:03.734Z,15.27
2022-11-14T21:34:02.344Z,14.98
2022-11-14T21:36:44.265Z,11.85
2022-11-14T21:47:13.070Z,14.45
2022-11-14T21:49:41.588Z,15.52
2022-11-14T21:55:32.821Z,11.27
2022-11-14T21:58:07.064Z,11.50
2022-11-14T22:00:56.096Z,13.10
2022-11-14T22:03:41.292Z,17.13
2022-11-14T22:06:46.389Z,12.30
2022-11-14T22:09:13.140Z,14.23
2022-11-14T22:11:40.371Z,14.10
2022-11-14T22:14:43.357Z,15.95
2022-11-14T22:17:47.116Z,11.05
2022-11-14T22:21:10.807Z,16.38
2022-11-14T22:23:41.972Z,13.80
2022-11-14T22:26:09.129Z,12.13
2022-11-14T22:28:37.206Z,14.38
2022-11-14T22:31:08.660Z,10.90
2022-11-14T22:36:17.885Z,16.67
2022-11-14T22:42:16.045Z,13.95
2022-11-14T22:44:46.010Z,13.50
2022-11-14T22:47:12.925Z,15.50
2022-11-14T22:49:39.669Z,10.57
2022-11-14T22:55:48.760Z,13.18
2022-11-14T22:58:15.538Z,12.30
2022-11-14T23:00:43.628Z,13.30
2022-11-14T23:03:20.923Z,17.65
2022-11-14T23:05:51.072Z,10.52
2022-11-14T23:08:31.133Z,11.80
2022-11-14T23:11:04.354Z,12.25
2022-11-14T23:23:41.469Z,10.23
2022-11-14T23:26:11.285Z,10.88
2022-11-14T23:28:38.220Z,10.68
2022-11-14T23:34:14.733Z,9.43
2022-11-14T23:37:20.161Z,14.05
2022-11-14T23:44:57.034Z,10.18
2022-11-14T23:51:10.104Z,10.82
2022-11-14T23:53:37.062Z,10.70
2022-11-14T23:56:05.371Z,10.82
2022-11-14T23:58:32.203Z,10.10
